F/V Fille Du Suet — FGSG — position and weather

sailwx.info

Track history (hours):
 
Tides and Currents Weather Stations Pressure Air Temp Water Temp Dewpoint Dewpoint Depression Visibility Wind Speed Wind Dir Waves Ship Positions

F/V Fille Du Suet

Last reported at 2018-Jul-13 13:06 UTC. Time now 2018-Jul-18 01:08 UTC.
Position N 46°44' W 002°21'.

Length 22 m; draft 3.8 m.

Type: Fishing. MMSI: 227574000.

Date/timePositionNaut miles runAvg speedWind from/ knotsBaromVisibWave heightAir tempDewpointWater temp
2018-Jul-13 13:06N 46°44' W 002°21'1 6.8
2018-Jul-13 13:00N 46°44' W 002°21'48 8.7
2018-Jul-13 07:29N 46°54' W 003°30'2 1.4
2018-Jul-13 05:56N 46°54' W 003°33'3 3.6
2018-Jul-13 05:10N 46°55' W 003°29'0 1.0
2018-Jul-13 05:00N 46°55' W 003°29'1 1.4
2018-Jul-13 04:30N 46°55' W 003°30'1 1.3
2018-Jul-13 03:44N 46°55' W 003°32'0 0.9
2018-Jul-13 03:25N 46°55' W 003°32'0 1.0
2018-Jul-13 02:57N 46°55' W 003°33'1 1.2
2018-Jul-13 02:28N 46°55' W 003°34'1 0.6
2018-Jul-13 00:25N 46°54' W 003°33'28 0.7
2018-Jul-11 06:33N 47°05' W 004°10'0 1.3
2018-Jul-11 06:21N 47°05' W 004°11'1 1.4
2018-Jul-11 06:00N 47°05' W 004°11'1 1.3
2018-Jul-11 05:31N 47°05' W 004°12'1 1.3
2018-Jul-11 05:00N 47°05' W 004°13'1 1.5
2018-Jul-11 04:30N 47°05' W 004°14'0 0.0
2018-Jul-11 03:59N 47°05' W 004°14'0 0.0
2018-Jul-11 03:30N 47°05' W 004°14'0 0.0
2018-Jul-11 02:58N 47°05' W 004°14'0 0.1
2018-Jul-11 02:30N 47°05' W 004°14'0 0.2
2018-Jul-11 01:53N 47°05' W 004°14'0 0.3
2018-Jul-11 01:30N 47°05' W 004°14'0 0.2
2018-Jul-11 00:31N 47°05' W 004°14'5 1.3
2018-Jul-10 20:39N 47°10' W 004°13'710.0
2018-Jul-10 19:58N 47°17' W 004°13'8 9.8
2018-Jul-10 19:12N 47°24' W 004°14'210.6
2018-Jul-10 19:00N 47°26' W 004°15'510.1
2018-Jul-10 18:29N 47°31' W 004°16'510.5
2018-Jul-10 18:00N 47°36' W 004°17'610.4
2018-Jul-10 17:25N 47°42' W 004°17'510.4
2018-Jul-10 16:59N 47°47' W 004°18'0 0.2
2018-Jul-10 15:34N 47°47' W 004°18'13 9.3
2018-Jul-10 14:08N 47°34' W 004°15'1 9.5
2018-Jul-10 14:01N 47°33' W 004°14'5 9.3
2018-Jul-10 13:28N 47°28' W 004°13'5 9.1
2018-Jul-10 12:55N 47°23' W 004°12'12 9.6
2018-Jul-10 11:39N 47°11' W 004°10'6 6.5
2018-Jul-10 10:40N 47°05' W 004°12'2 2.4
2018-Jul-10 09:50N 47°04' W 004°09'1 4.1
2018-Jul-10 09:29N 47°04' W 004°11'1 1.2
2018-Jul-10 08:57N 47°04' W 004°12'1 1.1
2018-Jul-10 08:21N 47°04' W 004°13'0 1.0
2018-Jul-10 08:00N 47°04' W 004°13'3 4.0
2018-Jul-10 07:20N 47°05' W 004°09'0 1.0
2018-Jul-10 06:59N 47°04' W 004°10'2 1.1
2018-Jul-10 05:32N 47°04' W 004°12'0 1.2
2018-Jul-10 05:20N 47°04' W 004°13'1 0.3
2018-Jul-10 03:03N 47°05' W 004°12'0 1.2
2018-Jul-10 03:00N 47°05' W 004°12'15 0.7
2018-Jul-09 07:19N 47°10' W 004°32'0 1.0
2018-Jul-09 07:00N 47°10' W 004°33'1 1.2
2018-Jul-09 06:30N 47°09' W 004°34'2 1.2
2018-Jul-09 04:52N 47°09' W 004°37'1 1.4
2018-Jul-09 04:25N 47°09' W 004°37'0 0.4
2018-Jul-09 04:01N 47°09' W 004°38'0 0.1
2018-Jul-09 03:26N 47°09' W 004°37'0 0.0
2018-Jul-09 03:00N 47°09' W 004°37'0 0.0
2018-Jul-09 02:21N 47°09' W 004°37'0 0.0
2018-Jul-09 01:59N 47°09' W 004°37'0 0.0
2018-Jul-09 01:30N 47°09' W 004°37'0 0.0
2018-Jul-09 01:00N 47°09' W 004°37'0 0.1
2018-Jul-09 00:31N 47°09' W 004°37'23 1.3
2018-Jul-08 07:33N 47°32' W 004°37'2 0.4
2018-Jul-08 03:53N 47°31' W 004°39'0 0.0
2018-Jul-08 02:53N 47°31' W 004°39'0 0.0
2018-Jul-07 23:38N 47°31' W 004°39'0 0.1
2018-Jul-07 22:53N 47°31' W 004°39'19 2.4
2018-Jul-07 14:48N 47°46' W 004°20'19 2.7
2018-Jul-07 07:58N 47°31' W 004°38'1 0.8
2018-Jul-07 06:58N 47°31' W 004°39'  
2018-Jul-04 14:53N 47°45' W 004°17'7 6.0
2018-Jul-04 13:43N 47°39' W 004°20'  
Track history (hours):
 
Tides and Currents Weather Stations Pressure Air Temp Water Temp Dewpoint Dewpoint Depression Visibility Wind Speed Wind Dir Waves Ship Positions

F/V Fille Du Suet

Last reported at 2018-Jul-13 13:06 UTC. Time now 2018-Jul-18 01:08 UTC.
Position N 46°44' W 002°21'.

Length 22 m; draft 3.8 m.

Type: Fishing. MMSI: 227574000.

Date/timePositionNaut miles runAvg speedWind from/ knotsBaromVisibWave heightAir tempDewpointWater temp
2018-Jul-13 13:06N 46°44' W 002°21'1 6.8
2018-Jul-13 13:00N 46°44' W 002°21'48 8.7
2018-Jul-13 07:29N 46°54' W 003°30'2 1.4
2018-Jul-13 05:56N 46°54' W 003°33'3 3.6
2018-Jul-13 05:10N 46°55' W 003°29'0 1.0
2018-Jul-13 05:00N 46°55' W 003°29'1 1.4
2018-Jul-13 04:30N 46°55' W 003°30'1 1.3
2018-Jul-13 03:44N 46°55' W 003°32'0 0.9
2018-Jul-13 03:25N 46°55' W 003°32'0 1.0
2018-Jul-13 02:57N 46°55' W 003°33'1 1.2
2018-Jul-13 02:28N 46°55' W 003°34'1 0.6
2018-Jul-13 00:25N 46°54' W 003°33'28 0.7
2018-Jul-11 06:33N 47°05' W 004°10'0 1.3
2018-Jul-11 06:21N 47°05' W 004°11'1 1.4
2018-Jul-11 06:00N 47°05' W 004°11'1 1.3
2018-Jul-11 05:31N 47°05' W 004°12'1 1.3
2018-Jul-11 05:00N 47°05' W 004°13'1 1.5
2018-Jul-11 04:30N 47°05' W 004°14'0 0.0
2018-Jul-11 03:59N 47°05' W 004°14'0 0.0
2018-Jul-11 03:30N 47°05' W 004°14'0 0.0
2018-Jul-11 02:58N 47°05' W 004°14'0 0.1
2018-Jul-11 02:30N 47°05' W 004°14'0 0.2
2018-Jul-11 01:53N 47°05' W 004°14'0 0.3
2018-Jul-11 01:30N 47°05' W 004°14'0 0.2
2018-Jul-11 00:31N 47°05' W 004°14'5 1.3
2018-Jul-10 20:39N 47°10' W 004°13'710.0
2018-Jul-10 19:58N 47°17' W 004°13'8 9.8
2018-Jul-10 19:12N 47°24' W 004°14'210.6
2018-Jul-10 19:00N 47°26' W 004°15'510.1
2018-Jul-10 18:29N 47°31' W 004°16'510.5
2018-Jul-10 18:00N 47°36' W 004°17'610.4
2018-Jul-10 17:25N 47°42' W 004°17'510.4
2018-Jul-10 16:59N 47°47' W 004°18'0 0.2
2018-Jul-10 15:34N 47°47' W 004°18'13 9.3
2018-Jul-10 14:08N 47°34' W 004°15'1 9.5
2018-Jul-10 14:01N 47°33' W 004°14'5 9.3
2018-Jul-10 13:28N 47°28' W 004°13'5 9.1
2018-Jul-10 12:55N 47°23' W 004°12'12 9.6
2018-Jul-10 11:39N 47°11' W 004°10'6 6.5
2018-Jul-10 10:40N 47°05' W 004°12'2 2.4
2018-Jul-10 09:50N 47°04' W 004°09'1 4.1
2018-Jul-10 09:29N 47°04' W 004°11'1 1.2
2018-Jul-10 08:57N 47°04' W 004°12'1 1.1
2018-Jul-10 08:21N 47°04' W 004°13'0 1.0
2018-Jul-10 08:00N 47°04' W 004°13'3 4.0
2018-Jul-10 07:20N 47°05' W 004°09'0 1.0
2018-Jul-10 06:59N 47°04' W 004°10'2 1.1
2018-Jul-10 05:32N 47°04' W 004°12'0 1.2
2018-Jul-10 05:20N 47°04' W 004°13'1 0.3
2018-Jul-10 03:03N 47°05' W 004°12'0 1.2
2018-Jul-10 03:00N 47°05' W 004°12'15 0.7
2018-Jul-09 07:19N 47°10' W 004°32'0 1.0
2018-Jul-09 07:00N 47°10' W 004°33'1 1.2
2018-Jul-09 06:30N 47°09' W 004°34'2 1.2
2018-Jul-09 04:52N 47°09' W 004°37'1 1.4
2018-Jul-09 04:25N 47°09' W 004°37'0 0.4
2018-Jul-09 04:01N 47°09' W 004°38'0 0.1
2018-Jul-09 03:26N 47°09' W 004°37'0 0.0
2018-Jul-09 03:00N 47°09' W 004°37'0 0.0
2018-Jul-09 02:21N 47°09' W 004°37'0 0.0
2018-Jul-09 01:59N 47°09' W 004°37'0 0.0
2018-Jul-09 01:30N 47°09' W 004°37'0 0.0
2018-Jul-09 01:00N 47°09' W 004°37'0 0.1
2018-Jul-09 00:31N 47°09' W 004°37'23 1.3
2018-Jul-08 07:33N 47°32' W 004°37'2 0.4
2018-Jul-08 03:53N 47°31' W 004°39'0 0.0
2018-Jul-08 02:53N 47°31' W 004°39'0 0.0
2018-Jul-07 23:38N 47°31' W 004°39'0 0.1
2018-Jul-07 22:53N 47°31' W 004°39'19 2.4
2018-Jul-07 14:48N 47°46' W 004°20'19 2.7
2018-Jul-07 07:58N 47°31' W 004°38'1 0.8
2018-Jul-07 06:58N 47°31' W 004°39'  
2018-Jul-04 14:53N 47°45' W 004°17'7 6.0
2018-Jul-04 13:43N 47°39' W 004°20'  

Dump ship's entire track history